sensor_id;sensor_type;location;lat;lon;timestamp;P1;durP1;ratioP1;P2;durP2;ratioP2
52964;SDS011;42923;53.220;6.528;2023-07-20T00:00:29;6.72;;;5.93;;
52964;SDS011;42923;53.220;6.528;2023-07-20T00:03:09;7.85;;;6.05;;
52964;SDS011;42923;53.220;6.528;2023-07-20T00:05:42;8.45;;;5.75;;
52964;SDS011;42923;53.220;6.528;2023-07-20T00:08:09;5.93;;;5.28;;
52964;SDS011;42923;53.220;6.528;2023-07-20T00:10:34;6.28;;;5.35;;
52964;SDS011;42923;53.220;6.528;2023-07-20T00:13:00;6.72;;;6.03;;
52964;SDS011;42923;53.220;6.528;2023-07-20T00:15:26;7.20;;;5.20;;
52964;SDS011;42923;53.220;6.528;2023-07-20T00:17:52;7.65;;;5.75;;
52964;SDS011;42923;53.220;6.528;2023-07-20T00:20:17;6.65;;;5.47;;
52964;SDS011;42923;53.220;6.528;2023-07-20T00:22:43;6.00;;;4.80;;
52964;SDS011;42923;53.220;6.528;2023-07-20T00:25:09;5.95;;;5.35;;
52964;SDS011;42923;53.220;6.528;2023-07-20T00:27:37;7.78;;;5.05;;
52964;SDS011;42923;53.220;6.528;2023-07-20T00:30:03;8.63;;;5.13;;
52964;SDS011;42923;53.220;6.528;2023-07-20T00:32:30;5.68;;;4.55;;
52964;SDS011;42923;53.220;6.528;2023-07-20T00:34:56;9.07;;;5.80;;
52964;SDS011;42923;53.220;6.528;2023-07-20T00:37:22;5.78;;;4.18;;
52964;SDS011;42923;53.220;6.528;2023-07-20T00:39:48;9.10;;;5.60;;
52964;SDS011;42923;53.220;6.528;2023-07-20T00:42:14;7.35;;;4.60;;
52964;SDS011;42923;53.220;6.528;2023-07-20T00:44:40;7.78;;;5.30;;
52964;SDS011;42923;53.220;6.528;2023-07-20T00:47:06;9.18;;;4.95;;
52964;SDS011;42923;53.220;6.528;2023-07-20T00:49:32;11.48;;;5.53;;
52964;SDS011;42923;53.220;6.528;2023-07-20T00:51:59;7.03;;;5.18;;
52964;SDS011;42923;53.220;6.528;2023-07-20T00:54:26;7.18;;;4.30;;
52964;SDS011;42923;53.220;6.528;2023-07-20T00:56:53;7.80;;;5.47;;
52964;SDS011;42923;53.220;6.528;2023-07-20T00:59:19;8.50;;;5.63;;
52964;SDS011;42923;53.220;6.528;2023-07-20T01:01:46;6.80;;;6.05;;
52964;SDS011;42923;53.220;6.528;2023-07-20T01:04:12;8.90;;;6.40;;
52964;SDS011;42923;53.220;6.528;2023-07-20T01:09:15;7.80;;;6.43;;
52964;SDS011;42923;53.220;6.528;2023-07-20T01:12:12;7.10;;;5.90;;
52964;SDS011;42923;53.220;6.528;2023-07-20T01:14:43;6.40;;;5.82;;
52964;SDS011;42923;53.220;6.528;2023-07-20T01:17:10;8.07;;;6.38;;
52964;SDS011;42923;53.220;6.528;2023-07-20T01:19:37;9.55;;;7.05;;
52964;SDS011;42923;53.220;6.528;2023-07-20T01:24:54;10.15;;;6.90;;
52964;SDS011;42923;53.220;6.528;2023-07-20T01:33:29;8.38;;;7.15;;
52964;SDS011;42923;53.220;6.528;2023-07-20T01:35:58;8.68;;;6.53;;
52964;SDS011;42923;53.220;6.528;2023-07-20T01:38:27;9.13;;;7.20;;
52964;SDS011;42923;53.220;6.528;2023-07-20T01:40:54;9.80;;;6.32;;
52964;SDS011;42923;53.220;6.528;2023-07-20T01:43:21;8.38;;;6.93;;
52964;SDS011;42923;53.220;6.528;2023-07-20T01:45:47;9.00;;;6.22;;
52964;SDS011;42923;53.220;6.528;2023-07-20T01:48:12;9.02;;;7.65;;
52964;SDS011;42923;53.220;6.528;2023-07-20T01:50:38;11.32;;;6.82;;
52964;SDS011;42923;53.220;6.528;2023-07-20T01:53:04;8.30;;;6.53;;
52964;SDS011;42923;53.220;6.528;2023-07-20T01:55:30;10.00;;;7.30;;
52964;SDS011;42923;53.220;6.528;2023-07-20T01:57:55;12.80;;;6.53;;
52964;SDS011;42923;53.220;6.528;2023-07-20T02:00:21;10.45;;;6.95;;
52964;SDS011;42923;53.220;6.528;2023-07-20T02:02:50;12.48;;;7.40;;
52964;SDS011;42923;53.220;6.528;2023-07-20T02:05:16;8.13;;;6.90;;
52964;SDS011;42923;53.220;6.528;2023-07-20T02:07:42;7.53;;;6.70;;
52964;SDS011;42923;53.220;6.528;2023-07-20T02:10:09;10.93;;;6.47;;
52964;SDS011;42923;53.220;6.528;2023-07-20T02:12:35;7.57;;;6.63;;
52964;SDS011;42923;53.220;6.528;2023-07-20T02:15:01;9.82;;;6.63;;
52964;SDS011;42923;53.220;6.528;2023-07-20T02:17:27;7.97;;;6.68;;
52964;SDS011;42923;53.220;6.528;2023-07-20T02:19:53;12.55;;;6.65;;
52964;SDS011;42923;53.220;6.528;2023-07-20T02:22:20;7.40;;;6.70;;
52964;SDS011;42923;53.220;6.528;2023-07-20T02:24:46;7.63;;;6.55;;
52964;SDS011;42923;53.220;6.528;2023-07-20T02:27:12;9.60;;;7.28;;
52964;SDS011;42923;53.220;6.528;2023-07-20T02:29:38;7.60;;;6.80;;
52964;SDS011;42923;53.220;6.528;2023-07-20T02:32:06;9.10;;;6.68;;
52964;SDS011;42923;53.220;6.528;2023-07-20T02:34:32;11.85;;;7.13;;
52964;SDS011;42923;53.220;6.528;2023-07-20T02:36:58;8.02;;;7.32;;
52964;SDS011;42923;53.220;6.528;2023-07-20T02:39:26;8.07;;;7.32;;
52964;SDS011;42923;53.220;6.528;2023-07-20T02:41:53;9.52;;;7.00;;
52964;SDS011;42923;53.220;6.528;2023-07-20T02:44:19;8.45;;;6.57;;
52964;SDS011;42923;53.220;6.528;2023-07-20T02:46:45;9.98;;;6.30;;
52964;SDS011;42923;53.220;6.528;2023-07-20T02:49:11;7.45;;;6.47;;
52964;SDS011;42923;53.220;6.528;2023-07-20T02:51:37;8.90;;;6.55;;
52964;SDS011;42923;53.220;6.528;2023-07-20T02:54:03;9.23;;;6.43;;
52964;SDS011;42923;53.220;6.528;2023-07-20T02:56:28;10.30;;;7.22;;
52964;SDS011;42923;53.220;6.528;2023-07-20T02:58:54;9.60;;;6.88;;
52964;SDS011;42923;53.220;6.528;2023-07-20T03:01:20;11.40;;;7.50;;
52964;SDS011;42923;53.220;6.528;2023-07-20T03:03:46;6.78;;;6.18;;
52964;SDS011;42923;53.220;6.528;2023-07-20T03:06:13;7.72;;;6.38;;
52964;SDS011;42923;53.220;6.528;2023-07-20T03:08:40;8.93;;;7.15;;
52964;SDS011;42923;53.220;6.528;2023-07-20T03:11:07;10.77;;;6.80;;
52964;SDS011;42923;53.220;6.528;2023-07-20T03:13:33;9.88;;;6.88;;
52964;SDS011;42923;53.220;6.528;2023-07-20T03:15:59;8.27;;;6.70;;
52964;SDS011;42923;53.220;6.528;2023-07-20T03:18:25;15.45;;;7.93;;
52964;SDS011;42923;53.220;6.528;2023-07-20T03:20:51;6.70;;;6.00;;
52964;SDS011;42923;53.220;6.528;2023-07-20T03:23:17;7.93;;;7.13;;
52964;SDS011;42923;53.220;6.528;2023-07-20T03:25:42;9.15;;;7.78;;
52964;SDS011;42923;53.220;6.528;2023-07-20T03:28:08;7.97;;;6.65;;
52964;SDS011;42923;53.220;6.528;2023-07-20T03:30:35;10.25;;;6.93;;
52964;SDS011;42923;53.220;6.528;2023-07-20T03:33:00;8.75;;;7.43;;
52964;SDS011;42923;53.220;6.528;2023-07-20T03:35:29;7.82;;;6.95;;
52964;SDS011;42923;53.220;6.528;2023-07-20T03:37:55;8.18;;;6.60;;
52964;SDS011;42923;53.220;6.528;2023-07-20T03:40:21;9.27;;;6.18;;
52964;SDS011;42923;53.220;6.528;2023-07-20T03:42:47;7.50;;;6.30;;
52964;SDS011;42923;53.220;6.528;2023-07-20T03:45:13;7.88;;;6.82;;
52964;SDS011;42923;53.220;6.528;2023-07-20T03:47:39;12.88;;;6.25;;
52964;SDS011;42923;53.220;6.528;2023-07-20T03:50:05;10.93;;;6.95;;
52964;SDS011;42923;53.220;6.528;2023-07-20T03:52:31;8.63;;;7.00;;
52964;SDS011;42923;53.220;6.528;2023-07-20T03:54:57;9.77;;;5.63;;
52964;SDS011;42923;53.220;6.528;2023-07-20T03:57:23;9.00;;;5.97;;
52964;SDS011;42923;53.220;6.528;2023-07-20T03:59:49;10.60;;;6.15;;
52964;SDS011;42923;53.220;6.528;2023-07-20T04:02:14;8.00;;;6.05;;
52964;SDS011;42923;53.220;6.528;2023-07-20T04:04:41;13.48;;;6.80;;
52964;SDS011;42923;53.220;6.528;2023-07-20T04:07:07;9.20;;;6.40;;
52964;SDS011;42923;53.220;6.528;2023-07-20T04:09:33;8.38;;;6.30;;
52964;SDS011;42923;53.220;6.528;2023-07-20T04:11:59;8.43;;;6.00;;
52964;SDS011;42923;53.220;6.528;2023-07-20T04:14:25;9.35;;;6.70;;
52964;SDS011;42923;53.220;6.528;2023-07-20T04:16:51;7.15;;;5.75;;
52964;SDS011;42923;53.220;6.528;2023-07-20T04:19:17;13.63;;;7.22;;
52964;SDS011;42923;53.220;6.528;2023-07-20T04:21:43;7.03;;;5.63;;
52964;SDS011;42923;53.220;6.528;2023-07-20T04:24:09;7.90;;;6.00;;
52964;SDS011;42923;53.220;6.528;2023-07-20T04:26:36;9.63;;;5.60;;
52964;SDS011;42923;53.220;6.528;2023-07-20T04:29:02;6.50;;;5.30;;
52964;SDS011;42923;53.220;6.528;2023-07-20T04:31:34;5.78;;;4.90;;
52964;SDS011;42923;53.220;6.528;2023-07-20T04:34:02;7.90;;;4.57;;
52964;SDS011;42923;53.220;6.528;2023-07-20T04:36:28;6.93;;;5.63;;
52964;SDS011;42923;53.220;6.528;2023-07-20T04:38:54;5.65;;;5.05;;
52964;SDS011;42923;53.220;6.528;2023-07-20T04:41:21;6.03;;;5.00;;
52964;SDS011;42923;53.220;6.528;2023-07-20T04:43:49;10.15;;;4.78;;
52964;SDS011;42923;53.220;6.528;2023-07-20T04:46:23;11.98;;;5.97;;
52964;SDS011;42923;53.220;6.528;2023-07-20T04:48:49;6.38;;;4.90;;
52964;SDS011;42923;53.220;6.528;2023-07-20T04:51:15;8.27;;;5.47;;
52964;SDS011;42923;53.220;6.528;2023-07-20T04:53:46;5.85;;;4.85;;
52964;SDS011;42923;53.220;6.528;2023-07-20T04:56:12;6.22;;;5.60;;
52964;SDS011;42923;53.220;6.528;2023-07-20T04:58:38;6.05;;;4.95;;
52964;SDS011;42923;53.220;6.528;2023-07-20T05:01:03;6.85;;;4.90;;
52964;SDS011;42923;53.220;6.528;2023-07-20T05:03:31;4.68;;;4.28;;
52964;SDS011;42923;53.220;6.528;2023-07-20T05:05:58;5.18;;;4.68;;
52964;SDS011;42923;53.220;6.528;2023-07-20T05:08:23;4.55;;;4.15;;
52964;SDS011;42923;53.220;6.528;2023-07-20T05:10:50;6.13;;;4.25;;
52964;SDS011;42923;53.220;6.528;2023-07-20T05:13:16;6.85;;;4.35;;
52964;SDS011;42923;53.220;6.528;2023-07-20T05:15:42;6.32;;;4.53;;
52964;SDS011;42923;53.220;6.528;2023-07-20T05:18:11;5.63;;;4.60;;
52964;SDS011;42923;53.220;6.528;2023-07-20T05:20:38;7.00;;;4.10;;
52964;SDS011;42923;53.220;6.528;2023-07-20T05:23:03;4.90;;;4.20;;
52964;SDS011;42923;53.220;6.528;2023-07-20T05:25:29;3.97;;;3.63;;
52964;SDS011;42923;53.220;6.528;2023-07-20T05:27:55;14.70;;;4.10;;
52964;SDS011;42923;53.220;6.528;2023-07-20T05:30:21;3.72;;;3.38;;
52964;SDS011;42923;53.220;6.528;2023-07-20T05:32:46;6.40;;;3.67;;
52964;SDS011;42923;53.220;6.528;2023-07-20T05:35:17;5.55;;;3.05;;
52964;SDS011;42923;53.220;6.528;2023-07-20T05:37:43;3.20;;;2.70;;
52964;SDS011;42923;53.220;6.528;2023-07-20T05:40:10;5.25;;;3.45;;
52964;SDS011;42923;53.220;6.528;2023-07-20T05:42:37;3.08;;;2.28;;
52964;SDS011;42923;53.220;6.528;2023-07-20T05:45:04;4.50;;;1.95;;
52964;SDS011;42923;53.220;6.528;2023-07-20T05:47:30;7.10;;;2.80;;
52964;SDS011;42923;53.220;6.528;2023-07-20T05:49:57;2.60;;;2.08;;
52964;SDS011;42923;53.220;6.528;2023-07-20T05:52:23;6.32;;;2.47;;
52964;SDS011;42923;53.220;6.528;2023-07-20T05:54:48;6.15;;;2.42;;
52964;SDS011;42923;53.220;6.528;2023-07-20T05:57:14;2.97;;;2.00;;
52964;SDS011;42923;53.220;6.528;2023-07-20T05:59:40;5.18;;;2.33;;
52964;SDS011;42923;53.220;6.528;2023-07-20T06:02:09;7.43;;;2.13;;
52964;SDS011;42923;53.220;6.528;2023-07-20T06:04:35;4.57;;;2.00;;
52964;SDS011;42923;53.220;6.528;2023-07-20T06:07:01;6.22;;;2.28;;
52964;SDS011;42923;53.220;6.528;2023-07-20T06:09:27;4.85;;;1.88;;
52964;SDS011;42923;53.220;6.528;2023-07-20T06:11:54;2.92;;;2.13;;
52964;SDS011;42923;53.220;6.528;2023-07-20T06:14:20;8.57;;;2.10;;
52964;SDS011;42923;53.220;6.528;2023-07-20T06:16:46;9.25;;;2.20;;
52964;SDS011;42923;53.220;6.528;2023-07-20T06:19:11;4.57;;;2.25;;
52964;SDS011;42923;53.220;6.528;2023-07-20T06:21:37;6.05;;;2.13;;
52964;SDS011;42923;53.220;6.528;2023-07-20T06:24:03;4.95;;;2.10;;
52964;SDS011;42923;53.220;6.528;2023-07-20T06:26:29;4.97;;;2.45;;
52964;SDS011;42923;53.220;6.528;2023-07-20T06:28:56;4.43;;;2.00;;
52964;SDS011;42923;53.220;6.528;2023-07-20T06:31:22;2.75;;;1.63;;
52964;SDS011;42923;53.220;6.528;2023-07-20T06:33:47;4.35;;;2.00;;
52964;SDS011;42923;53.220;6.528;2023-07-20T06:36:16;4.05;;;1.90;;
52964;SDS011;42923;53.220;6.528;2023-07-20T06:38:42;3.42;;;1.52;;
52964;SDS011;42923;53.220;6.528;2023-07-20T06:41:08;4.55;;;1.50;;
52964;SDS011;42923;53.220;6.528;2023-07-20T06:43:34;4.50;;;1.60;;
52964;SDS011;42923;53.220;6.528;2023-07-20T06:46:00;3.25;;;1.23;;
52964;SDS011;42923;53.220;6.528;2023-07-20T06:48:26;8.90;;;1.83;;
52964;SDS011;42923;53.220;6.528;2023-07-20T06:50:51;4.63;;;1.65;;
52964;SDS011;42923;53.220;6.528;2023-07-20T06:53:18;1.85;;;1.20;;
52964;SDS011;42923;53.220;6.528;2023-07-20T06:55:44;3.95;;;1.23;;
52964;SDS011;42923;53.220;6.528;2023-07-20T06:58:10;2.95;;;1.35;;
52964;SDS011;42923;53.220;6.528;2023-07-20T07:00:36;5.00;;;1.85;;
52964;SDS011;42923;53.220;6.528;2023-07-20T07:03:02;2.85;;;1.70;;
52964;SDS011;42923;53.220;6.528;2023-07-20T07:05:28;5.93;;;1.85;;
52964;SDS011;42923;53.220;6.528;2023-07-20T07:07:54;4.18;;;2.08;;
52964;SDS011;42923;53.220;6.528;2023-07-20T07:10:19;2.47;;;1.42;;
52964;SDS011;42923;53.220;6.528;2023-07-20T07:12:45;4.82;;;1.60;;
52964;SDS011;42923;53.220;6.528;2023-07-20T07:15:11;2.75;;;1.70;;
52964;SDS011;42923;53.220;6.528;2023-07-20T07:17:37;4.63;;;1.50;;
52964;SDS011;42923;53.220;6.528;2023-07-20T07:20:03;4.28;;;2.15;;
52964;SDS011;42923;53.220;6.528;2023-07-20T07:22:30;5.72;;;1.95;;
52964;SDS011;42923;53.220;6.528;2023-07-20T07:24:56;3.40;;;1.90;;
52964;SDS011;42923;53.220;6.528;2023-07-20T07:27:22;3.83;;;2.08;;
52964;SDS011;42923;53.220;6.528;2023-07-20T07:29:47;6.88;;;2.40;;
52964;SDS011;42923;53.220;6.528;2023-07-20T07:32:14;5.15;;;1.90;;
52964;SDS011;42923;53.220;6.528;2023-07-20T07:34:40;8.27;;;2.22;;
52964;SDS011;42923;53.220;6.528;2023-07-20T07:37:06;1.92;;;1.58;;
52964;SDS011;42923;53.220;6.528;2023-07-20T07:39:32;5.88;;;2.47;;
52964;SDS011;42923;53.220;6.528;2023-07-20T07:41:58;5.68;;;1.88;;
52964;SDS011;42923;53.220;6.528;2023-07-20T07:44:24;4.97;;;2.33;;
52964;SDS011;42923;53.220;6.528;2023-07-20T07:46:50;7.03;;;2.33;;
52964;SDS011;42923;53.220;6.528;2023-07-20T07:49:16;6.13;;;2.25;;
52964;SDS011;42923;53.220;6.528;2023-07-20T07:51:42;3.08;;;1.80;;
52964;SDS011;42923;53.220;6.528;2023-07-20T07:54:07;4.28;;;2.20;;
52964;SDS011;42923;53.220;6.528;2023-07-20T07:56:33;6.22;;;2.25;;
52964;SDS011;42923;53.220;6.528;2023-07-20T07:58:59;7.05;;;1.90;;
52964;SDS011;42923;53.220;6.528;2023-07-20T08:01:24;5.15;;;1.95;;
52964;SDS011;42923;53.220;6.528;2023-07-20T08:03:50;3.20;;;1.75;;
52964;SDS011;42923;53.220;6.528;2023-07-20T08:06:17;4.10;;;1.67;;
52964;SDS011;42923;53.220;6.528;2023-07-20T08:08:42;4.57;;;2.13;;
52964;SDS011;42923;53.220;6.528;2023-07-20T08:11:08;4.05;;;1.80;;
52964;SDS011;42923;53.220;6.528;2023-07-20T08:13:34;3.70;;;1.52;;
52964;SDS011;42923;53.220;6.528;2023-07-20T08:16:01;3.97;;;1.50;;
52964;SDS011;42923;53.220;6.528;2023-07-20T08:18:30;4.03;;;1.67;;
52964;SDS011;42923;53.220;6.528;2023-07-20T08:20:56;7.78;;;1.83;;
52964;SDS011;42923;53.220;6.528;2023-07-20T08:23:22;5.20;;;1.48;;
52964;SDS011;42923;53.220;6.528;2023-07-20T08:25:48;6.18;;;1.40;;
52964;SDS011;42923;53.220;6.528;2023-07-20T08:28:14;3.13;;;1.00;;
52964;SDS011;42923;53.220;6.528;2023-07-20T08:30:45;6.43;;;1.55;;
52964;SDS011;42923;53.220;6.528;2023-07-20T08:33:16;4.50;;;1.00;;
52964;SDS011;42923;53.220;6.528;2023-07-20T08:35:45;2.22;;;0.95;;
52964;SDS011;42923;53.220;6.528;2023-07-20T08:38:12;3.88;;;1.13;;
52964;SDS011;42923;53.220;6.528;2023-07-20T08:40:42;1.45;;;0.82;;
52964;SDS011;42923;53.220;6.528;2023-07-20T08:43:11;3.30;;;1.08;;
52964;SDS011;42923;53.220;6.528;2023-07-20T08:45:38;2.35;;;1.05;;
52964;SDS011;42923;53.220;6.528;2023-07-20T08:48:06;2.63;;;0.90;;
52964;SDS011;42923;53.220;6.528;2023-07-20T08:50:32;2.00;;;1.08;;
52964;SDS011;42923;53.220;6.528;2023-07-20T08:53:00;3.85;;;1.35;;
52964;SDS011;42923;53.220;6.528;2023-07-20T08:55:26;3.42;;;1.10;;
52964;SDS011;42923;53.220;6.528;2023-07-20T08:57:53;3.47;;;1.20;;
52964;SDS011;42923;53.220;6.528;2023-07-20T09:00:20;4.63;;;1.02;;
52964;SDS011;42923;53.220;6.528;2023-07-20T09:02:49;2.45;;;0.82;;
52964;SDS011;42923;53.220;6.528;2023-07-20T09:05:22;1.40;;;0.60;;
52964;SDS011;42923;53.220;6.528;2023-07-20T09:07:48;3.90;;;1.42;;
52964;SDS011;42923;53.220;6.528;2023-07-20T09:10:14;3.28;;;1.02;;
52964;SDS011;42923;53.220;6.528;2023-07-20T09:12:41;2.25;;;1.13;;
52964;SDS011;42923;53.220;6.528;2023-07-20T09:15:09;3.20;;;1.30;;
52964;SDS011;42923;53.220;6.528;2023-07-20T09:17:36;5.32;;;1.38;;
52964;SDS011;42923;53.220;6.528;2023-07-20T09:20:03;2.53;;;0.55;;
52964;SDS011;42923;53.220;6.528;2023-07-20T09:22:36;4.00;;;0.90;;
52964;SDS011;42923;53.220;6.528;2023-07-20T09:25:06;2.45;;;1.05;;
52964;SDS011;42923;53.220;6.528;2023-07-20T09:27:40;2.28;;;0.77;;
52964;SDS011;42923;53.220;6.528;2023-07-20T09:30:07;2.58;;;0.80;;
52964;SDS011;42923;53.220;6.528;2023-07-20T09:35:18;1.98;;;1.10;;
52964;SDS011;42923;53.220;6.528;2023-07-20T09:37:46;6.70;;;1.02;;
52964;SDS011;42923;53.220;6.528;2023-07-20T09:40:14;2.28;;;0.75;;
52964;SDS011;42923;53.220;6.528;2023-07-20T09:42:41;3.88;;;0.90;;
52964;SDS011;42923;53.220;6.528;2023-07-20T09:45:08;2.17;;;1.10;;
52964;SDS011;42923;53.220;6.528;2023-07-20T09:47:35;1.45;;;1.10;;
52964;SDS011;42923;53.220;6.528;2023-07-20T09:50:06;5.40;;;1.08;;
52964;SDS011;42923;53.220;6.528;2023-07-20T09:52:38;1.88;;;0.90;;
52964;SDS011;42923;53.220;6.528;2023-07-20T09:55:07;2.30;;;1.02;;
52964;SDS011;42923;53.220;6.528;2023-07-20T09:57:33;2.72;;;0.95;;
52964;SDS011;42923;53.220;6.528;2023-07-20T10:00:01;2.50;;;1.02;;
52964;SDS011;42923;53.220;6.528;2023-07-20T10:02:40;1.52;;;0.77;;
52964;SDS011;42923;53.220;6.528;2023-07-20T10:05:14;3.78;;;1.27;;
52964;SDS011;42923;53.220;6.528;2023-07-20T10:07:44;1.75;;;0.63;;
52964;SDS011;42923;53.220;6.528;2023-07-20T10:10:13;2.95;;;1.38;;
52964;SDS011;42923;53.220;6.528;2023-07-20T10:12:42;3.78;;;1.10;;
52964;SDS011;42923;53.220;6.528;2023-07-20T10:15:29;1.70;;;1.25;;
52964;SDS011;42923;53.220;6.528;2023-07-20T10:18:02;3.63;;;1.00;;
52964;SDS011;42923;53.220;6.528;2023-07-20T10:20:34;2.75;;;0.95;;
52964;SDS011;42923;53.220;6.528;2023-07-20T10:23:01;3.35;;;1.00;;
52964;SDS011;42923;53.220;6.528;2023-07-20T10:25:29;3.33;;;1.15;;
52964;SDS011;42923;53.220;6.528;2023-07-20T10:27:56;2.67;;;0.98;;
52964;SDS011;42923;53.220;6.528;2023-07-20T10:30:22;1.88;;;0.90;;
52964;SDS011;42923;53.220;6.528;2023-07-20T10:32:49;4.35;;;1.35;;
52964;SDS011;42923;53.220;6.528;2023-07-20T10:35:17;3.10;;;1.20;;
52964;SDS011;42923;53.220;6.528;2023-07-20T10:37:50;5.50;;;1.70;;
52964;SDS011;42923;53.220;6.528;2023-07-20T10:40:24;2.28;;;0.93;;
52964;SDS011;42923;53.220;6.528;2023-07-20T10:42:56;3.35;;;1.02;;
52964;SDS011;42923;53.220;6.528;2023-07-20T10:45:34;2.42;;;1.13;;
52964;SDS011;42923;53.220;6.528;2023-07-20T10:48:16;3.13;;;1.00;;
52964;SDS011;42923;53.220;6.528;2023-07-20T10:51:08;2.70;;;1.02;;
52964;SDS011;42923;53.220;6.528;2023-07-20T10:53:39;2.63;;;1.40;;
52964;SDS011;42923;53.220;6.528;2023-07-20T10:56:06;1.80;;;0.85;;
52964;SDS011;42923;53.220;6.528;2023-07-20T10:58:42;4.05;;;1.30;;
52964;SDS011;42923;53.220;6.528;2023-07-20T11:01:08;3.08;;;1.15;;
52964;SDS011;42923;53.220;6.528;2023-07-20T11:03:38;3.15;;;1.05;;
52964;SDS011;42923;53.220;6.528;2023-07-20T11:08:54;3.78;;;1.10;;
52964;SDS011;42923;53.220;6.528;2023-07-20T11:11:31;1.00;;;0.65;;
52964;SDS011;42923;53.220;6.528;2023-07-20T11:13:59;1.25;;;1.00;;
52964;SDS011;42923;53.220;6.528;2023-07-20T11:19:03;1.70;;;1.05;;
52964;SDS011;42923;53.220;6.528;2023-07-20T11:21:34;1.45;;;0.95;;
52964;SDS011;42923;53.220;6.528;2023-07-20T11:24:05;3.67;;;1.00;;
52964;SDS011;42923;53.220;6.528;2023-07-20T11:26:39;5.72;;;1.40;;
52964;SDS011;42923;53.220;6.528;2023-07-20T11:29:06;1.43;;;0.90;;
52964;SDS011;42923;53.220;6.528;2023-07-20T11:31:34;1.83;;;1.10;;
52964;SDS011;42923;53.220;6.528;2023-07-20T11:34:01;3.38;;;1.30;;
52964;SDS011;42923;53.220;6.528;2023-07-20T11:36:27;2.00;;;1.15;;
52964;SDS011;42923;53.220;6.528;2023-07-20T11:38:53;2.85;;;1.27;;
52964;SDS011;42923;53.220;6.528;2023-07-20T11:41:19;1.17;;;1.02;;
52964;SDS011;42923;53.220;6.528;2023-07-20T11:43:45;4.40;;;1.52;;
52964;SDS011;42923;53.220;6.528;2023-07-20T11:46:11;2.65;;;1.30;;
52964;SDS011;42923;53.220;6.528;2023-07-20T11:48:36;1.77;;;1.02;;
52964;SDS011;42923;53.220;6.528;2023-07-20T11:51:02;3.42;;;1.20;;
52964;SDS011;42923;53.220;6.528;2023-07-20T11:53:28;3.50;;;1.02;;
52964;SDS011;42923;53.220;6.528;2023-07-20T11:55:54;1.55;;;0.90;;
52964;SDS011;42923;53.220;6.528;2023-07-20T11:58:20;3.35;;;1.00;;
52964;SDS011;42923;53.220;6.528;2023-07-20T12:00:47;5.15;;;1.48;;
52964;SDS011;42923;53.220;6.528;2023-07-20T12:03:13;2.53;;;1.23;;
52964;SDS011;42923;53.220;6.528;2023-07-20T12:05:38;2.67;;;1.20;;
52964;SDS011;42923;53.220;6.528;2023-07-20T12:08:04;3.85;;;1.58;;
52964;SDS011;42923;53.220;6.528;2023-07-20T12:10:30;3.00;;;0.98;;
52964;SDS011;42923;53.220;6.528;2023-07-20T12:13:02;2.78;;;1.10;;
52964;SDS011;42923;53.220;6.528;2023-07-20T12:15:32;2.35;;;0.90;;
52964;SDS011;42923;53.220;6.528;2023-07-20T12:18:01;2.08;;;1.10;;
52964;SDS011;42923;53.220;6.528;2023-07-20T12:25:44;1.30;;;0.80;;
52964;SDS011;42923;53.220;6.528;2023-07-20T12:28:13;1.50;;;1.10;;
52964;SDS011;42923;53.220;6.528;2023-07-20T12:30:47;2.80;;;1.00;;
52964;SDS011;42923;53.220;6.528;2023-07-20T12:33:21;2.63;;;1.17;;
52964;SDS011;42923;53.220;6.528;2023-07-20T12:35:48;3.38;;;1.05;;
52964;SDS011;42923;53.220;6.528;2023-07-20T12:38:21;1.50;;;0.88;;
52964;SDS011;42923;53.220;6.528;2023-07-20T12:40:47;4.30;;;0.80;;
52964;SDS011;42923;53.220;6.528;2023-07-20T12:43:13;4.38;;;1.00;;
52964;SDS011;42923;53.220;6.528;2023-07-20T12:45:39;2.63;;;1.00;;
52964;SDS011;42923;53.220;6.528;2023-07-20T12:48:05;3.33;;;1.20;;
52964;SDS011;42923;53.220;6.528;2023-07-20T12:50:31;2.10;;;1.13;;
52964;SDS011;42923;53.220;6.528;2023-07-20T12:52:57;2.88;;;1.40;;
52964;SDS011;42923;53.220;6.528;2023-07-20T12:55:23;3.22;;;1.17;;
52964;SDS011;42923;53.220;6.528;2023-07-20T12:57:49;1.83;;;1.10;;
52964;SDS011;42923;53.220;6.528;2023-07-20T13:00:14;5.13;;;1.52;;
52964;SDS011;42923;53.220;6.528;2023-07-20T13:02:41;4.45;;;1.05;;
52964;SDS011;42923;53.220;6.528;2023-07-20T13:05:08;11.95;;;1.60;;
52964;SDS011;42923;53.220;6.528;2023-07-20T13:07:35;4.68;;;1.63;;
52964;SDS011;42923;53.220;6.528;2023-07-20T13:10:02;5.10;;;1.42;;
52964;SDS011;42923;53.220;6.528;2023-07-20T13:12:30;5.78;;;1.20;;
52964;SDS011;42923;53.220;6.528;2023-07-20T13:14:56;2.50;;;1.33;;
52964;SDS011;42923;53.220;6.528;2023-07-20T13:17:26;4.70;;;1.27;;
52964;SDS011;42923;53.220;6.528;2023-07-20T13:19:52;5.25;;;1.77;;
52964;SDS011;42923;53.220;6.528;2023-07-20T13:22:18;3.20;;;1.40;;
52964;SDS011;42923;53.220;6.528;2023-07-20T13:24:44;4.63;;;1.55;;
52964;SDS011;42923;53.220;6.528;2023-07-20T13:27:19;4.95;;;1.65;;
52964;SDS011;42923;53.220;6.528;2023-07-20T13:29:45;2.88;;;1.13;;
52964;SDS011;42923;53.220;6.528;2023-07-20T13:32:14;2.33;;;1.33;;
52964;SDS011;42923;53.220;6.528;2023-07-20T13:34:41;4.57;;;1.73;;
52964;SDS011;42923;53.220;6.528;2023-07-20T13:37:07;5.05;;;1.58;;
52964;SDS011;42923;53.220;6.528;2023-07-20T13:39:33;4.75;;;1.45;;
52964;SDS011;42923;53.220;6.528;2023-07-20T13:41:59;4.13;;;1.38;;
52964;SDS011;42923;53.220;6.528;2023-07-20T13:44:27;3.05;;;1.10;;
52964;SDS011;42923;53.220;6.528;2023-07-20T13:46:53;2.17;;;1.40;;
52964;SDS011;42923;53.220;6.528;2023-07-20T13:49:19;2.00;;;1.13;;
52964;SDS011;42923;53.220;6.528;2023-07-20T13:51:44;2.78;;;1.30;;
52964;SDS011;42923;53.220;6.528;2023-07-20T13:54:10;4.97;;;1.13;;
52964;SDS011;42923;53.220;6.528;2023-07-20T13:56:37;3.08;;;1.50;;
52964;SDS011;42923;53.220;6.528;2023-07-20T13:59:02;2.05;;;1.20;;
52964;SDS011;42923;53.220;6.528;2023-07-20T14:01:28;1.98;;;1.30;;
52964;SDS011;42923;53.220;6.528;2023-07-20T14:03:55;4.07;;;1.58;;
52964;SDS011;42923;53.220;6.528;2023-07-20T14:06:21;2.80;;;1.20;;
52964;SDS011;42923;53.220;6.528;2023-07-20T14:08:47;3.47;;;1.50;;
52964;SDS011;42923;53.220;6.528;2023-07-20T14:11:14;2.00;;;1.00;;
52964;SDS011;42923;53.220;6.528;2023-07-20T14:13:42;1.98;;;1.13;;
52964;SDS011;42923;53.220;6.528;2023-07-20T14:16:10;2.20;;;0.88;;
52964;SDS011;42923;53.220;6.528;2023-07-20T14:18:36;2.22;;;0.98;;
52964;SDS011;42923;53.220;6.528;2023-07-20T14:21:02;4.45;;;1.33;;
52964;SDS011;42923;53.220;6.528;2023-07-20T14:23:32;3.50;;;1.45;;
52964;SDS011;42923;53.220;6.528;2023-07-20T14:25:57;1.83;;;1.10;;
52964;SDS011;42923;53.220;6.528;2023-07-20T14:28:24;2.67;;;0.90;;
52964;SDS011;42923;53.220;6.528;2023-07-20T14:30:50;1.98;;;1.25;;
52964;SDS011;42923;53.220;6.528;2023-07-20T14:33:15;3.20;;;1.40;;
52964;SDS011;42923;53.220;6.528;2023-07-20T14:35:41;2.92;;;1.27;;
52964;SDS011;42923;53.220;6.528;2023-07-20T14:38:07;4.50;;;1.55;;
52964;SDS011;42923;53.220;6.528;2023-07-20T14:40:33;2.85;;;1.63;;
52964;SDS011;42923;53.220;6.528;2023-07-20T14:42:58;2.75;;;1.05;;
52964;SDS011;42923;53.220;6.528;2023-07-20T14:45:26;3.33;;;1.30;;
52964;SDS011;42923;53.220;6.528;2023-07-20T14:47:52;3.85;;;1.40;;
52964;SDS011;42923;53.220;6.528;2023-07-20T14:50:19;2.35;;;1.10;;
52964;SDS011;42923;53.220;6.528;2023-07-20T14:52:45;4.15;;;1.70;;
52964;SDS011;42923;53.220;6.528;2023-07-20T14:55:11;2.53;;;1.40;;
52964;SDS011;42923;53.220;6.528;2023-07-20T14:57:37;3.92;;;1.77;;
52964;SDS011;42923;53.220;6.528;2023-07-20T15:00:03;3.58;;;1.73;;
52964;SDS011;42923;53.220;6.528;2023-07-20T15:02:38;5.72;;;1.33;;
52964;SDS011;42923;53.220;6.528;2023-07-20T15:05:08;2.78;;;1.58;;
52964;SDS011;42923;53.220;6.528;2023-07-20T15:07:34;6.15;;;1.60;;
52964;SDS011;42923;53.220;6.528;2023-07-20T15:10:01;2.45;;;1.50;;
52964;SDS011;42923;53.220;6.528;2023-07-20T15:12:27;4.43;;;1.80;;